Overview Statistics Trail Chart Weather Telemetry Raw packets
 

This is the latest recevied weather packets stored in our database for station/object N0BII-7. If no packets are shown the sender has not sent any weather packets the latest 10 day(s).

<< 1 2 3 4 5 >>
Time Temp. Humidity Pressure Rain* Wind** Luminosity Snow
1787972300 28.33° C 64% 846 hPa - - - -
1787932005 24.44° C 63% 846.1 hPa - - - -
1787931700 23.89° C 64% 846.3 hPa - - - -
1787931400 23.89° C 64% 846.2 hPa - - - -
1787931100 24.44° C 63% 846.4 hPa - - - -
1787930800 25.56° C 61% 846.3 hPa - - - -
1787930500 25.56° C 61% 846.5 hPa - - - -
1787930200 25.56° C 61% 846.6 hPa - - - -
1787929900 25.56° C 61% 846.5 hPa - - - -
1787929600 26.11° C 60% 846.7 hPa - - - -
1787929300 26.67° C 59% 846.7 hPa - - - -
1787928994 27.22° C 60% 846.7 hPa - - - -
1787928691 27.22° C 63% 846.9 hPa - - - -
1787928382 27.78° C 66% 848.3 hPa - - - -
1787926103 25.56° C 62% 846.8 hPa - - - -
1787917143 26.11° C 61% 845.8 hPa - - - -
1787916231 27.22° C 61% 845.8 hPa - - - -
1787888063 23.33° C 73% 845.8 hPa - - - -
1787887763 22.22° C 74% 845.8 hPa - - - -
1787841898 24.44° C 63% 847.6 hPa - - - -
1787841597 24.44° C 62% 847.5 hPa - - - -
1787841297 25° C 62% 847.5 hPa - - - -
1787840997 25.56° C 61% 847.4 hPa - - - -
1787840697 26.11° C 60% 847.2 hPa - - - -
1787840397 26.67° C 61% 847.4 hPa - - - -

* Rain since midnight (hover to see other rain measurements)
** Current wind speed in m/s (hover to see current wind gust speed)